Terminal Aerodrome Forecast
Issued by NWS Wilmington, NC

Home | Current Version | Previous Version | Text Only | Print | Product List | Glossary On
Versions: 1 2 3 4 5 6 7 8 9 10 11 12 13 14 15 16 17 18 19
036
FTUS42 KILM 091128
TAFLBT
TAF
KLBT 091128Z 0912/1012 26009KT P6SM BKN060
     FM091300 27013G23KT P6SM BKN050 BKN110
     FM100100 27012KT P6SM BKN050
     FM100600 27006KT P6SM OVC050=

USA.gov is the U.S. government's official web portal to all federal, state and local government web resources and services.